Time;durP1;ratioP1;P1;durP2;ratioP2;P2;SDS_P1;SDS_P2;PMS_P1;PMS_P2;Temp;Humidity;BMP_temperature;BMP_pressure;BME280_temperature;BME280_humidity;BME280_pressure;Samples;Min_cycle;Max_cycle;Signal;HPM_P1;HPM_P2
2022/01/21 00:02:23;;;;;;;11.85;7.22;;;;;;;6.44;69.91;101484.41;4995627;28;20507;-93
2022/01/21 00:04:51;;;;;;;10.48;6.45;;;;;;;6.30;69.81;101475.47;4995593;28;20097;-93
2022/01/21 00:07:29;;;;;;;11.38;6.85;;;;;;;6.20;70.00;101462.56;5009591;28;20030;-93
2022/01/21 00:09:54;;;;;;;10.55;6.63;;;;;;;6.18;69.94;101453.72;5011430;28;20052;-93
2022/01/21 00:12:42;;;;;;;12.18;7.20;;;;;;;6.38;70.04;101493.38;4995595;28;20101;-92
2022/01/21 00:15:10;;;;;;;;;;;;;;;6.42;69.61;101498.03;4995923;28;20034;-89
2022/01/21 00:17:42;;;;;;;11.07;6.85;;;;;;;6.13;70.02;101468.00;4995563;28;19917;-89
2022/01/21 00:32:15;;;;;;;10.10;6.60;;;;;;;6.08;69.55;101449.47;5012196;28;20084;-93
2022/01/21 00:34:51;;;;;;;11.55;7.32;;;;;;;6.31;69.70;101492.84;4995350;28;20029;-94
2022/01/21 00:37:27;;;;;;;11.07;6.90;;;;;;;6.37;69.49;101504.50;4995271;28;20049;-93
2022/01/21 00:39:58;;;;;;;11.13;7.20;;;;;;;6.13;69.56;101468.00;4998591;28;20052;-93
2022/01/21 00:44:51;;;;;;;9.90;6.38;;;;;;;6.18;69.63;101484.84;5027791;28;20029;-94
2022/01/21 00:47:39;;;;;;;9.43;7.05;;;;;;;6.44;69.65;101512.03;5002091;28;20040;-94
2022/01/21 00:50:13;;;;;;;;;;;;;;;6.39;69.77;101498.69;4981576;28;20033;-94
2022/01/21 00:52:47;;;;;;;10.27;6.70;;;;;;;6.19;69.90;101467.59;4999103;28;19921;-93
2022/01/21 00:55:18;;;;;;;12.32;7.18;;;;;;;6.10;69.68;101453.09;4998537;28;20040;-93
2022/01/21 00:57:44;;;;;;;12.65;6.72;;;;;;;6.03;70.31;101452.44;4998811;28;20044;-94
2022/01/21 01:00:25;;;;;;;10.63;6.68;;;;;;;6.28;69.56;101479.63;4997819;28;20017;-92
2022/01/21 01:02:58;;;;;;;11.20;6.70;;;;;;;6.35;69.38;101475.88;4996203;28;20025;-92
2022/01/21 01:05:31;;;;;;;10.30;7.03;;;;;;;6.23;69.52;101454.09;5014707;28;20062;-93
2022/01/21 01:08:04;;;;;;;11.13;6.57;;;;;;;5.96;69.65;101406.97;5016041;28;20021;-92
2022/01/21 01:10:48;;;;;;;11.93;6.95;;;;;;;6.23;69.42;101464.47;5001609;28;20021;-92
2022/01/21 01:19:58;;;;;;;12.45;7.43;;;;;;;6.24;70.01;101469.78;5021131;28;20033;-92
2022/01/21 01:23:03;;;;;;;11.15;7.28;;;;;;;5.95;69.73;101397.38;5003265;28;20030;-93
2022/01/21 01:28:41;;;;;;;10.50;6.70;;;;;;;6.03;70.07;101418.75;5021642;28;20140;-93
2022/01/21 01:31:12;;;;;;;10.02;6.63;;;;;;;6.14;70.04;101425.72;5002229;28;20029;-94
2022/01/21 01:34:07;;;;;;;12.02;7.65;;;;;;;6.31;69.69;101447.88;5000353;28;20029;-94
2022/01/21 01:37:03;;;;;;;11.02;6.85;;;;;;;6.36;69.70;101441.34;5001461;28;20037;-93
2022/01/21 01:39:59;;;;;;;11.60;6.97;;;;;;;6.45;69.38;101442.09;5017655;28;20049;-92
2022/01/21 01:51:32;;;;;;;12.30;6.70;;;;;;;5.89;69.30;101350.19;5020526;28;20130;-92
2022/01/21 01:54:11;;;;;;;12.05;6.90;;;;;;;6.43;69.38;101437.56;5000668;28;20057;-93
2022/01/21 02:00:43;;;;;;;11.55;6.78;;;;;;;6.41;69.53;101426.16;5035148;28;20113;-92
2022/01/21 02:03:10;;;;;;;11.73;6.95;;;;;;;6.40;69.50;101417.47;5017615;28;20056;-93
2022/01/21 02:06:08;;;;;;;10.40;6.75;;;;;;;6.32;69.34;101422.03;5033808;28;20034;-92
2022/01/21 02:08:40;;;;;;;10.73;6.47;;;;;;;6.23;68.97;101391.88;5000337;28;20029;-92
2022/01/21 02:14:31;;;;;;;10.05;6.55;;;;;;;6.24;69.58;101425.69;5032405;28;20671;-94
2022/01/21 02:21:28;;;;;;;12.65;6.78;;;;;;;6.25;69.62;101405.88;5015984;28;20037;-92
2022/01/21 02:26:37;;;;;;;11.27;6.85;;;;;;;6.20;68.86;101404.56;5026769;28;20049;-91
2022/01/21 02:29:09;;;;;;;10.30;6.88;;;;;;;6.23;69.64;101438.53;5016771;28;20029;-92
2022/01/21 02:31:49;;;;;;;10.40;6.68;;;;;;;6.22;69.03;101410.78;5000610;28;20453;-91
2022/01/21 02:34:44;;;;;;;10.70;6.97;;;;;;;6.38;69.41;101444.06;5034549;28;20546;-91
2022/01/21 02:37:11;;;;;;;11.48;7.10;;;;;;;5.77;69.03;101331.94;5016986;28;20411;-90
2022/01/21 02:39:38;;;;;;;10.93;7.18;;;;;;;6.23;69.30;101442.03;4999909;28;20048;-91
2022/01/21 02:42:08;;;;;;;11.43;6.93;;;;;;;6.08;69.62;101399.31;5000636;28;20030;-91
2022/01/21 02:44:39;;;;;;;11.10;6.97;;;;;;;6.08;69.26;101387.22;5000575;28;20032;-93
2022/01/21 02:47:34;;;;;;;13.88;6.93;;;;;;;6.35;69.30;101438.63;5000689;28;20514;-90
2022/01/21 02:50:27;;;;;;;13.63;7.70;;;;;;;6.41;69.00;101453.00;5000458;28;20037;-90
2022/01/21 02:56:24;;;;;;;10.98;7.15;;;;;;;6.41;69.22;101459.88;5017637;28;20037;-93
2022/01/21 02:59:41;;;;;;;12.48;7.13;;;;;;;6.31;69.72;101460.84;5016002;28;20045;-93
2022/01/21 03:02:24;;;;;;;11.82;7.60;;;;;;;5.99;70.10;101415.00;5016422;28;20544;-91
2022/01/21 03:05:22;;;;;;;10.77;6.82;;;;;;;6.37;69.44;101437.06;5000001;28;20078;-94
2022/01/21 03:07:59;;;;;;;12.43;7.53;;;;;;;6.26;69.86;101420.63;5000266;28;20025;-92
2022/01/21 03:10:28;;;;;;;;;;;;;;;6.35;69.42;101413.63;4997555;28;20036;-93
2022/01/21 03:16:17;;;;;;;10.77;6.88;;;;;;;6.40;69.29;101408.78;5014287;28;20125;-93
2022/01/21 03:19:22;;;;;;;11.40;7.18;;;;;;;6.29;69.41;101402.75;5001670;28;20029;-93
2022/01/21 03:22:20;;;;;;;12.77;7.18;;;;;;;6.37;69.37;101400.75;5016238;28;20410;-94
2022/01/21 03:25:20;;;;;;;11.93;7.05;;;;;;;6.26;69.55;101403.38;5001125;28;20040;-92
2022/01/21 03:27:49;;;;;;;10.02;6.80;;;;;;;6.28;69.43;101400.91;5005648;28;20029;-92
2022/01/21 03:30:23;;;;;;;10.27;7.03;;;;;;;6.21;69.50;101393.44;5001274;28;20060;-93
2022/01/21 03:33:03;;;;;;;11.40;7.22;;;;;;;6.20;69.21;101366.59;4998870;28;20056;-91
2022/01/21 03:35:48;;;;;;;10.13;7.10;;;;;;;6.20;69.76;101400.31;4999502;28;20065;-91
2022/01/21 03:38:14;;;;;;;11.98;7.13;;;;;;;6.03;69.95;101367.81;4995729;28;20599;-89
2022/01/21 03:40:42;;;;;;;11.25;6.95;;;;;;;6.09;69.71;101377.75;4996742;28;20125;-94
2022/01/21 03:43:10;;;;;;;10.10;6.72;;;;;;;5.89;69.69;101332.94;4996925;28;20041;-93
2022/01/21 03:45:53;;;;;;;10.70;6.80;;;;;;;6.30;69.46;101391.56;4996505;28;20415;-91
2022/01/21 03:48:21;;;;;;;10.50;6.82;;;;;;;6.17;69.62;101375.81;4994193;28;20030;-92
2022/01/21 03:50:52;;;;;;;11.77;7.25;;;;;;;5.78;69.20;101309.50;4976964;28;20038;-96
2022/01/21 03:53:38;;;;;;;11.10;7.75;;;;;;;6.20;69.41;101389.94;4976959;28;20026;-94
2022/01/21 03:56:04;;;;;;;12.55;6.80;;;;;;;6.07;69.70;101372.44;4992645;28;20061;-94
2022/01/21 03:58:40;;;;;;;11.07;7.30;;;;;;;5.93;69.47;101334.09;4978159;28;20037;-92
2022/01/21 04:01:33;;;;;;;10.82;6.97;;;;;;;6.19;69.80;101377.72;4995721;28;20061;-93
2022/01/21 04:04:29;;;;;;;10.75;6.97;;;;;;;6.24;69.26;101373.81;4995399;28;20030;-88
2022/01/21 04:06:57;;;;;;;11.23;7.20;;;;;;;6.06;69.55;101341.22;5013049;28;20025;-90
2022/01/21 04:09:32;;;;;;;12.05;7.63;;;;;;;6.09;69.49;101350.13;5010941;28;20026;-90
2022/01/21 04:12:19;;;;;;;14.43;7.50;;;;;;;6.23;69.25;101371.13;4995024;28;20038;-90
2022/01/21 04:15:04;;;;;;;11.32;6.70;;;;;;;6.01;69.75;101353.81;5011907;28;20026;-90
2022/01/21 04:17:36;;;;;;;12.60;7.45;;;;;;;6.16;69.91;101379.16;4995570;28;20030;-88
2022/01/21 04:20:32;;;;;;;12.80;7.38;;;;;;;6.21;69.47;101383.06;5011201;28;20120;-90
2022/01/21 04:23:10;;;;;;;11.15;6.75;;;;;;;5.96;69.89;101339.56;4994617;28;20076;-93
2022/01/21 04:28:57;;;;;;;11.15;6.88;;;;;;;6.15;69.46;101369.59;5012720;28;20040;-91
2022/01/21 04:31:38;;;;;;;13.43;7.60;;;;;;;6.05;69.33;101342.00;4995710;28;20117;-94
2022/01/21 04:34:20;;;;;;;11.95;7.18;;;;;;;6.00;69.24;101325.16;4995696;28;20317;-92
2022/01/21 04:37:01;;;;;;;11.65;7.03;;;;;;;6.20;69.10;101374.38;5011978;28;20030;-93
2022/01/21 04:39:33;;;;;;;11.90;7.38;;;;;;;5.84;69.31;101310.94;4975901;28;20072;-91
2022/01/21 04:48:00;;;;;;;12.10;7.13;;;;;;;6.15;69.20;101396.41;5001753;28;20049;-93
2022/01/21 04:53:48;;;;;;;10.93;7.03;;;;;;;6.15;69.49;101392.94;5016739;28;20091;-90
2022/01/21 04:59:37;;;;;;;10.43;7.45;;;;;;;6.08;69.38;101412.25;4997438;28;20101;-94
2022/01/21 05:02:03;;;;;;;12.20;7.70;;;;;;;6.16;69.29;101416.41;4995224;28;20510;-88
2022/01/21 05:04:52;;;;;;;14.63;7.85;;;;;;;6.13;69.64;101417.81;4998798;28;20018;-91
2022/01/21 05:07:46;;;;;;;12.27;7.30;;;;;;;6.25;69.06;101417.13;4998615;28;20034;-93
2022/01/21 05:10:27;;;;;;;11.70;7.40;;;;;;;6.01;69.35;101394.38;5015265;28;20030;-94
2022/01/21 05:12:57;;;;;;;12.77;7.68;;;;;;;6.21;68.81;101424.53;5000065;28;20026;-91
2022/01/21 05:18:03;;;;;;;13.93;7.78;;;;;;;5.90;69.73;101383.09;5016278;28;20507;-93
2022/01/21 05:20:36;;;;;;;12.75;7.90;;;;;;;5.89;69.44;101378.69;4998057;28;20033;-91
2022/01/21 05:23:03;;;;;;;11.10;7.15;;;;;;;5.91;69.43;101390.09;4998605;28;20037;-91
2022/01/21 05:25:55;;;;;;;12.20;7.80;;;;;;;6.02;69.84;101420.44;4998880;28;20033;-92
2022/01/21 05:28:23;;;;;;;13.25;7.88;;;;;;;5.98;69.60;101394.13;4998713;28;20176;-93
2022/01/21 05:30:49;;;;;;;12.63;7.80;;;;;;;6.07;69.16;101379.31;5015649;28;20030;-92
2022/01/21 05:33:46;;;;;;;13.55;8.20;;;;;;;6.04;69.90;101434.44;4999237;28;20032;-94
2022/01/21 05:36:13;;;;;;;13.32;7.47;;;;;;;5.90;70.19;101434.94;5000688;28;20095;-91
2022/01/21 05:38:39;;;;;;;12.75;7.65;;;;;;;5.82;69.80;101404.88;5014703;28;20096;-90
2022/01/21 05:41:04;;;;;;;11.77;7.57;;;;;;;5.79;70.12;101425.38;4998127;28;20041;-92
2022/01/21 05:43:44;;;;;;;11.80;7.38;;;;;;;5.86;69.71;101410.47;4998777;28;20272;-93
2022/01/21 05:46:25;;;;;;;12.63;7.05;;;;;;;6.08;69.70;101430.41;4998818;28;20126;-92
2022/01/21 05:48:53;;;;;;;12.32;7.47;;;;;;;5.62;70.23;101375.63;5000120;28;20026;-90
2022/01/21 05:51:20;;;;;;;11.43;7.38;;;;;;;5.84;69.52;101404.25;4996959;28;20033;-87
2022/01/21 05:53:47;;;;;;;13.32;7.53;;;;;;;5.83;70.31;101454.25;5013834;28;20057;-89
2022/01/21 05:56:14;;;;;;;14.18;8.00;;;;;;;5.49;70.43;101389.22;4996316;28;20041;-92
2022/01/21 05:58:44;;;;;;;12.30;8.15;;;;;;;5.98;70.30;101465.03;4998328;28;20029;-90
2022/01/21 06:01:17;;;;;;;13.10;7.18;;;;;;;5.82;70.53;101446.34;4997839;28;20038;-92
2022/01/21 06:03:59;;;;;;;11.45;7.13;;;;;;;5.97;70.35;101473.59;4997550;28;20121;-90
2022/01/21 06:06:51;;;;;;;13.73;7.40;;;;;;;6.15;69.87;101471.63;4989035;28;20435;-93
2022/01/21 06:09:18;;;;;;;13.50;7.60;;;;;;;5.75;70.61;101434.56;4999288;28;20069;-92
2022/01/21 06:11:45;;;;;;;12.63;7.45;;;;;;;5.61;70.72;101420.47;5002561;28;20048;-87
2022/01/21 06:14:10;;;;;;;11.23;7.65;;;;;;;5.61;70.47;101410.09;5002248;28;20030;-88
2022/01/21 06:16:40;;;;;;;14.13;7.97;;;;;;;5.81;70.84;101483.41;4987048;28;20045;-87
2022/01/21 06:19:06;;;;;;;14.48;7.78;;;;;;;5.82;70.56;101461.88;4996919;28;20049;-89
2022/01/21 06:21:49;;;;;;;12.88;7.47;;;;;;;5.65;70.84;101442.31;5013743;28;20057;-91
2022/01/21 06:24:17;;;;;;;10.65;7.43;;;;;;;5.77;70.12;101452.84;4995110;28;20080;-90
2022/01/21 06:27:00;;;;;;;14.32;7.65;;;;;;;5.91;70.29;101483.41;4981545;28;20026;-94
2022/01/21 06:29:29;;;;;;;11.32;7.32;;;;;;;5.77;70.90;101496.88;5004041;28;20121;-92
2022/01/21 06:31:59;;;;;;;11.43;7.63;;;;;;;5.62;70.80;101479.25;5004559;28;20097;-92
2022/01/21 06:34:29;;;;;;;12.07;8.07;;;;;;;5.80;70.55;101512.69;4979145;28;20038;-94
2022/01/21 06:37:04;;;;;;;11.98;7.68;;;;;;;5.79;71.15;101526.44;5014636;28;20057;-95
2022/01/21 06:39:37;;;;;;;10.80;7.75;;;;;;;5.66;70.35;101483.94;4994353;28;20053;-90
2022/01/21 06:42:05;;;;;;;11.77;7.75;;;;;;;5.91;70.69;101525.78;4991890;28;20651;-90
2022/01/21 06:44:46;;;;;;;11.52;7.40;;;;;;;5.87;70.81;101528.00;4996796;28;20034;-91
2022/01/21 06:47:28;;;;;;;12.07;7.30;;;;;;;5.43;70.64;101448.28;4996660;28;20037;-90
2022/01/21 06:49:54;;;;;;;10.27;6.72;;;;;;;5.85;70.49;101524.38;4996696;28;20483;-91
2022/01/21 06:52:21;;;;;;;11.35;7.07;;;;;;;5.78;70.38;101497.03;4995264;28;20088;-90
2022/01/21 06:54:49;;;;;;;11.63;7.20;;;;;;;5.84;70.60;101532.91;5012919;28;20038;-92
2022/01/21 06:57:24;;;;;;;11.45;7.22;;;;;;;5.94;70.41;101532.00;4996724;28;20026;-90
2022/01/21 06:59:50;;;;;;;11.30;7.05;;;;;;;5.74;69.89;101494.06;4996882;28;20032;-92
2022/01/21 07:02:18;;;;;;;10.48;7.15;;;;;;;6.13;69.79;101538.00;4997040;28;20068;-91
2022/01/21 07:04:50;;;;;;;11.63;7.13;;;;;;;5.82;70.17;101519.84;5013238;28;20049;-90
2022/01/21 07:07:39;;;;;;;11.75;6.88;;;;;;;5.94;70.30;101553.66;5012597;28;20083;-89
2022/01/21 07:10:18;;;;;;;9.75;6.93;;;;;;;5.90;70.20;101559.34;4996476;28;20037;-90
2022/01/21 07:13:03;;;;;;;10.38;6.35;;;;;;;5.94;70.51;101564.03;5012471;28;20112;-91
2022/01/21 07:15:31;;;;;;;9.52;6.28;;;;;;;5.38;71.17;101492.72;5011526;28;20495;-91
2022/01/21 07:17:57;;;;;;;10.45;6.60;;;;;;;5.77;70.11;101508.16;4995264;28;20562;-90
2022/01/21 07:20:40;;;;;;;11.32;6.95;;;;;;;5.69;70.99;101532.50;4996140;28;20053;-91
2022/01/21 07:23:24;;;;;;;11.20;6.85;;;;;;;5.78;70.62;101519.41;4996213;28;20510;-90
2022/01/21 07:25:57;;;;;;;10.38;6.88;;;;;;;5.90;70.34;101548.97;4999447;28;20030;-91
2022/01/21 07:28:25;;;;;;;10.05;6.47;;;;;;;5.28;71.39;101497.09;4992398;28;20495;-89
2022/01/21 07:30:54;;;;;;;9.38;6.00;;;;;;;5.35;71.50;101516.66;5005755;28;20026;-90
2022/01/21 07:33:33;;;;;;;10.60;6.35;;;;;;;5.57;71.60;101547.03;4996222;28;20025;-91
2022/01/21 07:36:37;;;;;;;9.98;6.15;;;;;;;5.68;71.70;101560.09;4996115;28;20030;-91
2022/01/21 07:39:05;;;;;;;11.05;7.00;;;;;;;5.50;71.67;101535.19;5020317;28;20462;-93
2022/01/21 07:41:34;;;;;;;10.68;6.88;;;;;;;5.57;70.86;101526.31;5000452;28;20502;-92
2022/01/21 07:47:22;;;;;;;12.57;7.07;;;;;;;5.40;70.94;101540.38;5033656;28;20052;-92
2022/01/21 07:53:10;;;;;;;10.50;6.43;;;;;;;5.75;70.92;101599.50;5032438;28;20516;-93
2022/01/21 07:55:45;;;;;;;9.32;6.07;;;;;;;5.24;71.30;101543.31;4999290;28;20127;-92
2022/01/21 07:58:12;;;;;;;10.30;5.80;;;;;;;5.29;71.77;101561.06;4998992;28;20487;-90
2022/01/21 08:01:19;;;;;;;9.50;6.40;;;;;;;5.79;71.03;101619.75;5014392;28;20039;-92
2022/01/21 08:07:18;;;;;;;9.63;6.07;;;;;;;5.35;71.74;101596.94;5031970;28;20095;-94
2022/01/21 08:10:22;;;;;;;8.68;5.60;;;;;;;5.56;72.03;101646.22;4998391;28;20030;-92
2022/01/21 08:13:28;;;;;;;10.02;6.20;;;;;;;5.50;72.09;101651.78;5015277;28;20045;-91
2022/01/21 08:16:05;;;;;;;7.93;5.57;;;;;;;5.63;71.30;101656.34;5014838;28;20418;-92
2022/01/21 08:18:31;;;;;;;;;;;;;;;5.69;71.58;101665.59;5015001;28;20506;-95
2022/01/21 08:21:07;;;;;;;11.98;6.30;;;;;;;5.58;71.93;101683.53;5014774;28;19918;-91
2022/01/21 08:23:33;;;;;;;10.18;6.22;;;;;;;5.65;71.56;101668.69;4998664;28;20076;-93
2022/01/21 08:26:05;;;;;;;9.23;6.40;;;;;;;5.69;71.88;101691.50;5032392;28;20061;-94
2022/01/21 08:28:33;;;;;;;11.40;6.28;;;;;;;5.40;71.71;101644.88;4997898;28;20070;-93
2022/01/21 08:31:01;;;;;;;9.13;5.95;;;;;;;5.46;71.43;101658.38;5030915;28;20029;-93
2022/01/21 08:33:28;;;;;;;9.23;5.88;;;;;;;5.62;71.52;101698.59;4998260;28;20546;-92
2022/01/21 08:35:56;;;;;;;9.50;6.50;;;;;;;5.47;72.39;101687.78;4997695;28;20033;-92
2022/01/21 08:38:22;;;;;;;11.38;6.88;;;;;;;5.35;72.61;101694.44;4998244;28;20030;-95
2022/01/21 08:40:51;;;;;;;9.90;6.47;;;;;;;5.75;71.34;101693.72;4999083;28;20025;-94
2022/01/21 08:43:17;;;;;;;10.13;6.53;;;;;;;5.46;71.52;101678.16;5014139;28;20025;-93
2022/01/21 08:45:45;;;;;;;10.70;6.80;;;;;;;5.65;71.74;101720.50;4998560;28;20027;-94
2022/01/21 08:48:18;;;;;;;9.73;6.50;;;;;;;5.42;71.68;101679.59;5001031;28;20022;-94
2022/01/21 08:51:01;;;;;;;9.50;6.00;;;;;;;5.18;72.34;101657.59;4998932;28;20030;-92
2022/01/21 08:53:36;;;;;;;9.57;6.35;;;;;;;5.37;72.34;101690.31;4998797;28;20029;-92
2022/01/21 08:56:11;;;;;;;8.82;6.43;;;;;;;5.46;71.48;101667.81;4999897;28;20033;-93
2022/01/21 08:58:45;;;;;;;8.68;6.22;;;;;;;5.59;71.88;101714.78;4997558;28;20036;-95
2022/01/21 09:01:18;;;;;;;9.55;6.40;;;;;;;5.44;71.81;101679.72;4990722;28;20087;-93
2022/01/21 09:03:45;;;;;;;9.10;6.18;;;;;;;5.28;72.06;101656.75;5006719;28;20063;-93
2022/01/21 09:06:18;;;;;;;10.18;6.28;;;;;;;5.53;72.04;101690.03;5006413;28;20032;-93
2022/01/21 09:08:49;;;;;;;8.95;6.05;;;;;;;5.71;71.35;101714.94;5004547;28;20034;-96
2022/01/21 09:11:18;;;;;;;10.10;6.18;;;;;;;5.92;70.73;101716.84;5001757;28;20021;-95
2022/01/21 09:13:49;;;;;;;8.48;6.18;;;;;;;5.65;71.90;101711.81;5000263;28;20034;-96
2022/01/21 09:16:56;;;;;;;8.35;5.93;;;;;;;5.77;71.25;101706.81;4999518;28;20041;-95
2022/01/21 09:19:41;;;;;;;8.70;6.13;;;;;;;5.55;72.42;101709.19;5015633;28;20120;-92
2022/01/21 09:22:35;;;;;;;8.75;5.97;;;;;;;5.43;72.44;101709.00;4997869;28;20041;-95
2022/01/21 09:25:40;;;;;;;8.32;5.78;;;;;;;5.56;72.07;101711.91;4997633;28;20041;-94
2022/01/21 09:28:47;;;;;;;8.32;5.80;;;;;;;5.49;72.46;101710.44;5007499;28;20034;-94
2022/01/21 09:31:14;;;;;;;9.00;5.85;;;;;;;5.54;72.18;101707.38;5018534;28;20029;-95
2022/01/21 09:33:43;;;;;;;8.77;6.18;;;;;;;5.26;72.96;101668.63;5002341;28;20398;-93
2022/01/21 09:36:12;;;;;;;10.00;5.78;;;;;;;5.51;71.60;101656.19;5002072;28;20510;-94
2022/01/21 09:38:39;;;;;;;9.15;5.78;;;;;;;5.71;71.65;101699.41;5000199;28;20057;-93
2022/01/21 09:41:09;;;;;;;9.30;5.90;;;;;;;5.68;70.98;101668.03;5001593;28;20091;-94
2022/01/21 09:43:45;;;;;;;9.70;6.20;;;;;;;5.74;71.80;101698.78;5001793;28;20029;-93
2022/01/21 09:46:27;;;;;;;10.52;6.10;;;;;;;5.53;72.38;101696.09;5001860;28;20029;-93
2022/01/21 09:49:08;;;;;;;8.52;6.13;;;;;;;5.58;72.39;101692.22;5017692;28;20103;-93
2022/01/21 09:51:43;;;;;;;9.07;5.97;;;;;;;5.74;71.40;101670.28;5001516;28;20525;-94
2022/01/21 09:54:53;;;;;;;9.05;6.10;;;;;;;5.72;71.44;101706.41;5001249;28;20104;-93
2022/01/21 09:57:31;;;;;;;9.30;6.43;;;;;;;5.50;72.46;101709.69;5017964;28;20041;-93
2022/01/21 10:00:08;;;;;;;8.98;5.85;;;;;;;5.50;71.55;101649.19;5001509;28;20032;-93
2022/01/21 10:02:45;;;;;;;8.93;6.05;;;;;;;5.62;72.11;101696.91;5001320;28;20056;-93
2022/01/21 10:05:18;;;;;;;9.30;6.25;;;;;;;5.77;71.39;101710.31;5001722;28;20495;-93
2022/01/21 10:08:25;;;;;;;8.70;5.72;;;;;;;5.64;72.09;101695.34;5001744;28;20125;-93
2022/01/21 10:11:07;;;;;;;10.45;6.53;;;;;;;5.59;71.97;101696.66;5035321;28;20498;-94
2022/01/21 10:13:52;;;;;;;10.63;6.95;;;;;;;5.10;72.84;101622.31;5001329;28;20026;-95
2022/01/21 10:16:56;;;;;;;11.65;6.05;;;;;;;5.45;72.75;101684.16;5017491;28;20030;-94
2022/01/21 10:19:24;;;;;;;8.45;6.20;;;;;;;5.42;72.07;101645.00;5034572;28;20026;-91
2022/01/21 10:22:09;;;;;;;10.63;6.20;;;;;;;5.48;72.52;101685.34;5001148;28;20079;-94
2022/01/21 10:24:37;;;;;;;8.82;6.13;;;;;;;5.35;71.83;101627.13;5000001;28;20021;-93
2022/01/21 10:27:25;;;;;;;9.20;6.25;;;;;;;5.54;71.70;101630.53;5000712;28;20525;-94
2022/01/21 10:29:56;;;;;;;10.32;5.93;;;;;;;5.62;71.83;101691.72;5000726;28;20498;-94
2022/01/21 10:32:54;;;;;;;10.77;6.95;;;;;;;5.90;71.27;101687.31;5001453;28;20030;-95
2022/01/21 10:35:50;;;;;;;9.82;6.72;;;;;;;5.54;71.84;101682.34;5000245;28;20043;-93
2022/01/21 10:38:39;;;;;;;12.43;8.00;;;;;;;5.75;71.16;101675.56;5000004;28;20508;-94
2022/01/21 10:41:28;;;;;;;12.68;7.57;;;;;;;5.61;71.84;101666.59;4977281;28;20085;-95
2022/01/21 10:44:18;;;;;;;10.85;6.90;;;;;;;5.58;72.38;101662.81;4993850;28;20507;-95
2022/01/21 10:47:38;;;;;;;9.65;6.78;;;;;;;5.46;72.80;101660.97;4984770;28;20129;-94
2022/01/21 10:50:11;;;;;;;10.38;6.70;;;;;;;5.55;71.42;101615.94;4976081;28;20105;-91
2022/01/21 10:52:51;;;;;;;12.32;7.13;;;;;;;5.85;71.20;101647.09;4993984;28;20038;-95
2022/01/21 10:55:39;;;;;;;10.05;6.95;;;;;;;5.68;71.37;101652.50;4976208;28;20038;-94
2022/01/21 10:58:28;;;;;;;;;;;;;;;5.70;72.11;101638.00;4993223;28;20038;-94
2022/01/21 11:01:07;;;;;;;10.95;6.97;;;;;;;5.59;71.25;101585.25;4994702;28;19918;-94
2022/01/21 11:03:33;;;;;;;10.23;6.50;;;;;;;5.15;70.99;101507.16;4971137;28;20511;-93
2022/01/21 11:06:17;;;;;;;10.00;6.50;;;;;;;5.67;71.64;101628.28;4993036;28;20037;-93
2022/01/21 11:09:23;;;;;;;9.07;5.97;;;;;;;5.53;72.10;101627.84;4977515;28;20042;-94
2022/01/21 11:12:15;;;;;;;9.82;6.72;;;;;;;5.43;72.48;101633.88;4993464;28;20518;-91
2022/01/21 11:14:57;;;;;;;10.05;6.35;;;;;;;5.28;72.65;101594.59;4975970;28;20137;-92
2022/01/21 11:17:32;;;;;;;10.75;6.57;;;;;;;5.42;72.31;101603.56;4977054;28;20038;-93
2022/01/21 11:20:18;;;;;;;9.98;6.22;;;;;;;5.66;71.89;101618.66;4992943;28;20045;-91
2022/01/21 11:22:59;;;;;;;9.98;6.43;;;;;;;5.56;72.36;101617.72;4977762;28;20062;-92
2022/01/21 11:25:56;;;;;;;10.05;6.78;;;;;;;5.72;71.96;101624.38;4984394;28;20431;-90
2022/01/21 11:31:40;;;;;;;9.88;6.25;;;;;;;5.41;71.62;101586.22;4995040;28;20401;-94
2022/01/21 11:34:07;;;;;;;9.30;6.13;;;;;;;5.27;71.89;101585.91;4981451;28;20104;-94
2022/01/21 11:36:33;;;;;;;9.63;6.20;;;;;;;5.54;71.95;101629.66;4979619;28;20031;-96
2022/01/21 11:38:59;;;;;;;10.63;6.65;;;;;;;5.42;71.63;101594.13;4972647;28;20625;-94
2022/01/21 11:41:28;;;;;;;9.90;6.22;;;;;;;5.46;71.87;101608.22;4992237;28;20395;-91
2022/01/21 11:44:00;;;;;;;10.32;6.30;;;;;;;5.14;72.15;101584.69;4997223;28;20083;-91
2022/01/21 11:49:42;;;;;;;10.63;6.65;;;;;;;5.38;72.48;101628.31;5017312;28;20037;-95
2022/01/21 11:53:01;;;;;;;9.68;6.40;;;;;;;5.47;72.40;101639.47;5019030;28;20044;-93
2022/01/21 11:55:35;;;;;;;9.43;6.00;;;;;;;5.09;72.15;101545.44;5011338;28;20053;-91
2022/01/21 11:58:22;;;;;;;10.38;6.47;;;;;;;5.57;71.91;101629.94;5031413;28;20029;-94
2022/01/21 12:00:53;;;;;;;9.93;6.38;;;;;;;5.62;71.87;101626.94;5021086;28;20037;-92
2022/01/21 12:03:54;;;;;;;9.73;6.32;;;;;;;5.10;71.67;101523.94;5016877;28;20049;-94
2022/01/21 12:06:54;;;;;;;10.32;6.13;;;;;;;5.79;71.56;101622.34;5014595;28;20037;-93
2022/01/21 12:09:58;;;;;;;9.65;6.15;;;;;;;5.58;71.92;101613.59;5033068;28;20025;-91
2022/01/21 12:15:51;;;;;;;8.95;5.97;;;;;;;5.62;72.03;101626.94;5079019;28;20043;-96
2022/01/21 12:21:51;;;;;;;11.65;6.47;;;;;;;5.65;71.35;101626.28;5072180;28;20039;-94
2022/01/21 12:24:41;;;;;;;11.50;6.07;;;;;;;5.78;70.68;101602.34;5038861;28;20032;-96
2022/01/21 12:27:15;;;;;;;11.23;6.45;;;;;;;5.59;71.67;101620.56;5044746;28;20482;-94
2022/01/21 12:30:24;;;;;;;10.85;6.20;;;;;;;5.49;72.05;101611.09;5044272;28;20098;-95
2022/01/21 12:33:10;;;;;;;12.00;6.32;;;;;;;5.57;71.31;101585.88;5026415;28;20119;-92
2022/01/21 12:36:16;;;;;;;11.65;6.68;;;;;;;5.60;71.84;101612.94;5035506;28;20012;-93
2022/01/21 12:41:37;;;;;;;9.95;6.43;;;;;;;5.63;71.75;101610.66;5076133;28;20059;-88
2022/01/21 12:44:30;;;;;;;11.35;6.60;;;;;;;5.87;71.08;101605.75;5042552;28;20038;-88
2022/01/21 12:47:29;;;;;;;9.32;5.97;;;;;;;5.62;71.66;101598.44;5056294;28;20029;-90
2022/01/21 12:50:38;;;;;;;9.23;5.82;;;;;;;5.90;71.05;101606.00;5038232;28;20044;-90
2022/01/21 12:53:25;;;;;;;10.98;6.82;;;;;;;5.56;70.84;101542.59;5038881;28;20033;-90
2022/01/21 12:55:55;;;;;;;9.85;6.18;;;;;;;5.54;71.72;101583.00;5037828;28;20044;-89
2022/01/21 12:58:51;;;;;;;9.13;6.10;;;;;;;5.64;71.76;101593.41;5052133;28;20039;-86
2022/01/21 13:01:19;;;;;;;8.18;5.57;;;;;;;5.71;71.34;101590.56;5067784;28;20119;-90
2022/01/21 13:07:11;;;;;;;8.48;5.72;;;;;;;5.61;71.42;101588.88;5075677;28;20047;-90
2022/01/21 13:09:42;;;;;;;10.05;5.80;;;;;;;5.67;71.78;101623.09;5041103;28;20052;-91
2022/01/21 13:12:20;;;;;;;9.35;6.20;;;;;;;5.27;72.02;101569.44;5075540;28;20029;-90
2022/01/21 13:15:10;;;;;;;9.50;5.97;;;;;;;5.54;72.08;101630.53;5041400;28;20050;-90
2022/01/21 13:17:44;;;;;;;9.70;6.00;;;;;;;5.28;72.01;101574.78;5041578;28;20036;-92
2022/01/21 13:20:10;;;;;;;9.65;5.85;;;;;;;5.43;72.11;101595.03;5041280;28;20021;-87
2022/01/21 13:22:44;;;;;;;9.68;5.70;;;;;;;5.23;72.45;101564.81;5040199;28;20025;-94
2022/01/21 13:25:17;;;;;;;9.63;5.82;;;;;;;4.97;71.83;101509.03;5041456;28;20063;-88
2022/01/21 13:28:00;;;;;;;9.32;6.05;;;;;;;5.55;71.88;101596.09;5041555;28;20107;-93
2022/01/21 13:30:33;;;;;;;8.98;5.63;;;;;;;5.71;71.37;101632.03;5037520;28;20120;-90
2022/01/21 13:33:15;;;;;;;8.93;5.65;;;;;;;5.33;71.78;101554.44;5040578;28;20028;-91
2022/01/21 13:35:49;;;;;;;10.90;6.40;;;;;;;5.34;71.87;101589.94;5074175;28;20032;-90
2022/01/21 13:38:29;;;;;;;8.65;5.72;;;;;;;5.64;71.18;101590.81;5041521;28;20557;-91
2022/01/21 13:41:08;;;;;;;9.60;5.50;;;;;;;5.29;71.96;101586.97;5048277;28;20061;-89
2022/01/21 13:43:34;;;;;;;9.18;5.88;;;;;;;5.36;72.08;101591.00;5036195;28;20047;-88
2022/01/21 13:46:10;;;;;;;9.65;5.95;;;;;;;5.58;72.15;101622.25;5036469;28;20486;-90
2022/01/21 13:48:37;;;;;;;10.15;5.40;;;;;;;5.37;71.13;101541.00;5036941;28;20113;-91
2022/01/21 13:51:08;;;;;;;8.55;5.57;;;;;;;5.55;71.33;101603.88;5038626;28;20029;-91
2022/01/21 13:53:41;;;;;;;9.88;5.80;;;;;;;5.59;71.46;101618.91;5054992;28;20510;-90
2022/01/21 13:56:15;;;;;;;8.57;5.55;;;;;;;5.56;71.18;101603.09;5056523;28;20032;-92
2022/01/21 13:59:16;;;;;;;9.18;6.00;;;;;;;5.70;71.71;101643.19;5038270;28;20036;-93
2022/01/21 14:01:42;;;;;;;9.23;5.65;;;;;;;5.28;71.70;101577.34;5036650;28;20021;-90
2022/01/21 14:08:16;;;;;;;8.65;5.82;;;;;;;5.70;71.62;101664.81;5058607;28;20044;-93